Terminal Aerodrome Forecast
Issued by NWS Cleveland, OH

Home | Current Version | Previous Version | Graphics & Text | Print | Product List | Glossary On
Versions: 1 2 3 4 5 6 7 8 9 10 11 12 13 14 15 16 17 18 19 20 21
000
FTUS41 KCLE 270800 AAA
TAFTOL
TAF AMD
KTOL 270834Z 2709/2806 VRB03KT 3SM BR SCT003 OVC015
      TEMPO 2709/2712 1/2SM FG VV003
     FM271400 25003KT 5SM BR OVC008
     FM271700 28010KT P6SM VCSH SCT035 BKN100
     FM272100 31008KT P6SM VCTS BKN035CB OVC100
      TEMPO 2722/2802 2SM TSRA BR OVC015CB
     FM280400 29008KT 6SM BR SCT025 OVC035=

USA.gov is the U.S. government's official web portal to all federal, state and local government web resources and services.